Time;durP1;ratioP1;P1;durP2;ratioP2;P2;SDS_P1;SDS_P2;PMS_P1;PMS_P2;Temp;Humidity;BMP_temperature;BMP_pressure;BME280_temperature;BME280_humidity;BME280_pressure;Samples;Min_cycle;Max_cycle;Signal;HPM_P1;HPM_P2
2021/01/14 00:02:30;;;;;;;54.73;24.92;;;;;;;-0.43;86.23;97582.25;2245184;78;21301;-72
2021/01/14 00:05:31;;;;;;;55.28;24.37;;;;;;;-0.42;86.22;97577.03;2248335;78;21280;-73
2021/01/14 00:08:32;;;;;;;57.35;27.00;;;;;;;-0.40;86.09;97572.69;2245231;78;21718;-73
2021/01/14 00:11:33;;;;;;;57.05;28.23;;;;;;;-0.35;86.11;97571.22;2248721;78;21260;-77
2021/01/14 00:14:36;;;;;;;62.17;29.30;;;;;;;-0.30;86.06;97571.05;2246922;78;21709;-72
2021/01/14 00:17:37;;;;;;;54.40;27.10;;;;;;;-0.29;85.83;97563.25;2251032;78;21725;-72
2021/01/14 00:20:38;;;;;;;56.68;25.88;;;;;;;-0.31;85.78;97562.48;2252914;79;21704;-73
2021/01/14 00:23:39;;;;;;;52.73;24.43;;;;;;;-0.29;85.67;97557.27;2244897;79;21143;-76
2021/01/14 00:26:40;;;;;;;56.48;25.85;;;;;;;-0.31;85.56;97544.91;2247400;79;21698;-70
2021/01/14 00:29:42;;;;;;;60.48;27.05;;;;;;;-0.35;85.62;97542.42;2254135;78;21260;-73
2021/01/14 00:32:43;;;;;;;60.17;27.15;;;;;;;-0.32;85.65;97550.95;2253768;78;21812;-69
2021/01/14 00:35:44;;;;;;;54.20;26.68;;;;;;;-0.29;85.64;97552.12;2248128;78;21297;-77
2021/01/14 00:38:46;;;;;;;57.43;26.77;;;;;;;-0.28;85.55;97550.77;2245789;78;21284;-76
2021/01/14 00:41:47;;;;;;;56.53;27.40;;;;;;;-0.28;85.44;97542.21;2248036;78;21690;-69
2021/01/14 00:44:48;;;;;;;53.17;25.75;;;;;;;-0.29;85.52;97540.52;2245693;78;21709;-69
2021/01/14 00:47:49;;;;;;;52.20;25.43;;;;;;;-0.30;85.44;97540.13;2253715;78;21292;-73
2021/01/14 00:50:50;;;;;;;56.02;26.17;;;;;;;-0.33;85.38;97532.52;2249749;79;21264;-71
2021/01/14 00:53:52;;;;;;;53.58;25.72;;;;;;;-0.36;85.42;97543.77;2253556;78;21265;-71
2021/01/14 00:56:53;;;;;;;55.03;26.45;;;;;;;-0.42;85.39;97538.39;2249344;78;21305;-68
2021/01/14 00:59:54;;;;;;;54.05;25.17;;;;;;;-0.43;85.52;97537.16;2253562;79;21183;-67
2021/01/14 01:02:55;;;;;;;57.27;26.85;;;;;;;-0.43;85.50;97538.45;2250889;78;21272;-70
2021/01/14 01:05:56;;;;;;;55.50;24.82;;;;;;;-0.42;85.56;97537.56;2250413;78;21265;-71
2021/01/14 01:08:57;;;;;;;55.70;26.95;;;;;;;-0.38;85.54;97537.39;2247270;79;21697;-75
2021/01/14 01:11:59;;;;;;;58.60;26.48;;;;;;;-0.35;85.56;97533.86;2245453;78;21685;-76
2021/01/14 01:15:00;;;;;;;61.77;27.15;;;;;;;-0.30;85.51;97540.98;2252676;78;21301;-75
2021/01/14 01:18:01;;;;;;;56.33;26.85;;;;;;;-0.29;85.38;97537.95;2250626;78;21688;-68
2021/01/14 01:21:02;;;;;;;63.78;26.70;;;;;;;-0.32;85.39;97535.03;2245150;79;21273;-72
2021/01/14 01:24:03;;;;;;;53.50;25.68;;;;;;;-0.32;85.40;97531.63;2248166;78;21273;-66
2021/01/14 01:27:05;;;;;;;55.83;27.13;;;;;;;-0.34;85.41;97523.95;2244644;79;21257;-67
2021/01/14 01:30:08;;;;;;;61.92;27.25;;;;;;;-0.35;85.45;97525.67;2230430;78;22061;-70
2021/01/14 01:33:09;;;;;;;;;;;;;;;-0.35;85.40;97522.27;2254205;79;21253;-67
2021/01/14 01:36:10;;;;;;;61.20;28.27;;;;;;;-0.38;85.50;97520.64;2253045;78;20131;-66
2021/01/14 01:39:12;;;;;;;62.90;29.82;;;;;;;-0.37;85.58;97515.05;2252917;78;21257;-69
2021/01/14 01:42:13;;;;;;;64.42;30.52;;;;;;;-0.37;85.56;97516.34;2251008;78;21285;-71
2021/01/14 01:45:14;;;;;;;75.62;33.67;;;;;;;-0.38;85.60;97512.91;2253183;78;21594;-66
2021/01/14 01:48:18;;;;;;;61.00;29.25;;;;;;;-0.36;85.54;97516.71;2251405;78;21706;-69
2021/01/14 01:51:19;;;;;;;61.70;29.48;;;;;;;-0.36;85.46;97518.86;2246432;79;21701;-66
2021/01/14 01:54:20;;;;;;;64.70;29.32;;;;;;;-0.32;85.52;97519.56;2251470;79;21792;-65
2021/01/14 01:57:22;;;;;;;60.85;27.45;;;;;;;-0.26;85.54;97523.65;2255029;79;21294;-68
2021/01/14 02:00:23;;;;;;;62.67;28.05;;;;;;;-0.21;85.37;97516.59;2256272;79;21242;-66
2021/01/14 02:03:24;;;;;;;64.80;28.55;;;;;;;-0.21;85.40;97523.05;2249947;78;21763;-66
2021/01/14 02:06:25;;;;;;;57.20;27.07;;;;;;;-0.15;85.26;97520.68;2255595;79;21297;-67
2021/01/14 02:09:27;;;;;;;62.03;29.07;;;;;;;-0.16;85.07;97516.41;2256180;79;21127;-67
2021/01/14 02:12:29;;;;;;;69.62;29.87;;;;;;;-0.19;85.08;97519.94;2244646;78;21704;-66
2021/01/14 02:15:30;;;;;;;67.32;29.95;;;;;;;-0.21;85.18;97515.31;2244518;78;21308;-66
2021/01/14 02:18:31;;;;;;;68.80;30.80;;;;;;;-0.19;85.22;97514.78;2251882;78;21285;-67
2021/01/14 02:21:33;;;;;;;65.30;29.13;;;;;;;-0.19;85.18;97513.06;2249562;79;21333;-66
2021/01/14 02:24:34;;;;;;;67.37;29.55;;;;;;;-0.20;85.09;97512.67;2248702;78;21719;-66
2021/01/14 02:27:36;;;;;;;62.43;29.60;;;;;;;-0.19;85.22;97514.36;2254376;78;21737;-68
2021/01/14 02:30:37;;;;;;;67.60;32.88;;;;;;;-0.15;85.20;97512.95;2252934;78;21134;-69
2021/01/14 02:33:38;;;;;;;73.20;32.95;;;;;;;-0.15;85.22;97512.95;2250744;78;21697;-67
2021/01/14 02:36:39;;;;;;;60.50;31.00;;;;;;;-0.16;85.18;97509.51;2254110;79;21257;-69
2021/01/14 02:39:40;;;;;;;64.00;29.95;;;;;;;-0.12;85.32;97508.95;2256672;78;21269;-70
2021/01/14 02:42:42;;;;;;;65.62;31.10;;;;;;;-0.13;85.17;97506.84;2255108;78;21253;-66
2021/01/14 02:45:43;;;;;;;65.90;29.25;;;;;;;-0.09;85.08;97504.50;2251932;78;21285;-73
2021/01/14 02:48:44;;;;;;;64.58;30.05;;;;;;;-0.10;85.13;97510.58;2254023;78;21294;-73
2021/01/14 02:51:45;;;;;;;66.72;29.92;;;;;;;-0.10;85.06;97502.84;2250485;78;21281;-71
2021/01/14 02:54:46;;;;;;;61.35;30.62;;;;;;;-0.08;85.01;97507.94;2252395;78;21261;-77
2021/01/14 02:57:48;;;;;;;67.72;31.07;;;;;;;-0.12;85.01;97506.38;2251327;79;21709;-76
2021/01/14 03:00:49;;;;;;;64.67;30.75;;;;;;;-0.12;85.14;97506.38;2247976;79;21268;-74
2021/01/14 03:03:50;;;;;;;65.08;30.55;;;;;;;-0.13;85.07;97509.84;2246916;78;21140;-71
2021/01/14 03:06:52;;;;;;;66.25;30.50;;;;;;;-0.16;85.13;97508.68;2257105;79;21142;-74
2021/01/14 03:09:53;;;;;;;66.55;30.80;;;;;;;-0.13;85.28;97500.39;2251509;79;21273;-77
2021/01/14 03:12:54;;;;;;;67.15;31.77;;;;;;;-0.04;85.44;97496.61;2245337;78;21276;-75
2021/01/14 03:15:55;;;;;;;66.17;31.52;;;;;;;0.01;85.19;97495.14;2252312;78;21397;-72
2021/01/14 03:18:56;;;;;;;69.45;32.65;;;;;;;-0.01;85.23;97493.91;2249085;78;21142;-75
2021/01/14 03:21:59;;;;;;;61.55;30.00;;;;;;;0.02;85.24;97494.25;2247847;78;21288;-77
2021/01/14 03:25:00;;;;;;;59.85;30.40;;;;;;;0.02;85.03;97495.08;2253257;79;21297;-74
2021/01/14 03:28:01;;;;;;;64.97;30.37;;;;;;;;;;2252170;78;21276;-71
2021/01/14 03:31:02;;;;;;;65.28;32.30;;;;;;;0.02;85.04;97492.95;2246604;78;21293;-76
2021/01/14 03:34:04;;;;;;;68.75;32.40;;;;;;;-0.01;84.88;97492.63;2251734;78;21278;-75
2021/01/14 03:37:05;;;;;;;64.32;31.42;;;;;;;-0.04;85.07;97491.45;2247097;78;21308;-73
2021/01/14 03:40:06;;;;;;;63.58;30.57;;;;;;;-0.03;84.96;97493.11;2250306;78;21272;-76
2021/01/14 03:43:07;;;;;;;60.80;29.72;;;;;;;-0.07;84.92;97482.10;2250197;79;21264;-73
2021/01/14 03:46:08;;;;;;;59.13;28.98;;;;;;;-0.04;85.13;97492.75;2246563;78;21158;-66
2021/01/14 03:49:09;;;;;;;59.33;30.48;;;;;;;-0.04;84.94;97487.59;2245897;79;21725;-68
2021/01/14 03:52:11;;;;;;;67.67;31.68;;;;;;;-0.07;84.93;97487.69;2251505;78;21297;-66
2021/01/14 03:55:12;;;;;;;60.25;29.57;;;;;;;-0.09;85.02;97490.79;2249826;78;21284;-70
2021/01/14 03:58:13;;;;;;;55.70;27.50;;;;;;;-0.08;85.18;97496.34;2254081;78;21272;-67
2021/01/14 04:01:14;;;;;;;56.88;26.02;;;;;;;-0.11;84.99;97495.18;2252498;78;21286;-68
2021/01/14 04:04:15;;;;;;;59.83;26.68;;;;;;;-0.09;85.12;97495.95;2231990;79;21265;-67
2021/01/14 04:07:17;;;;;;;61.05;27.55;;;;;;;-0.06;85.26;97495.82;2225356;78;21692;-66
2021/01/14 04:10:18;;;;;;;57.38;27.15;;;;;;;-0.04;85.10;97500.02;2250213;78;21293;-66
2021/01/14 04:13:19;;;;;;;58.08;26.23;;;;;;;-0.03;85.11;97495.69;2253227;78;21241;-67
2021/01/14 04:16:21;;;;;;;57.20;26.25;;;;;;;-0.04;84.92;97497.91;2249487;78;21726;-66
2021/01/14 04:19:22;;;;;;;51.75;24.75;;;;;;;-0.05;84.99;97500.91;2253352;79;21297;-67
2021/01/14 04:22:23;;;;;;;50.70;24.92;;;;;;;-0.03;85.02;97501.70;2253535;78;21718;-77
2021/01/14 04:25:30;;;;;;;52.62;24.52;;;;;;;-0.06;84.87;97500.97;2244687;79;21305;-76
2021/01/14 04:28:27;;;;;;;51.73;24.10;;;;;;;-0.12;84.86;97506.38;2250487;78;21265;-76
2021/01/14 04:31:28;;;;;;;58.73;25.97;;;;;;;-0.13;84.93;97502.97;2256331;79;21285;-70
2021/01/14 04:34:29;;;;;;;49.42;24.20;;;;;;;-0.14;84.87;97503.00;2245465;78;21256;-75
2021/01/14 04:37:32;;;;;;;52.75;25.43;;;;;;;-0.15;84.98;97506.04;2249902;79;21749;-71
2021/01/14 04:40:33;;;;;;;59.48;25.90;;;;;;;-0.19;84.82;97505.77;2257782;79;21685;-71
2021/01/14 04:43:34;;;;;;;56.02;27.13;;;;;;;-0.23;84.77;97512.80;2248440;78;21293;-73
2021/01/14 04:46:36;;;;;;;57.38;27.48;;;;;;;-0.23;84.97;97511.94;2254236;78;21273;-71
2021/01/14 04:49:37;;;;;;;62.13;28.30;;;;;;;-0.19;85.01;97507.05;2248305;79;21316;-75
2021/01/14 04:52:38;;;;;;;59.20;27.93;;;;;;;-0.23;84.73;97508.06;2254431;78;21106;-69
2021/01/14 04:55:39;;;;;;;60.80;29.42;;;;;;;-0.27;84.83;97509.11;2246288;79;23041;-71
2021/01/14 04:58:40;;;;;;;62.05;29.30;;;;;;;-0.29;84.78;97514.30;2250998;78;21284;-72
2021/01/14 05:01:41;;;;;;;58.17;29.00;;;;;;;-0.32;84.73;97515.70;2249246;79;21712;-70
2021/01/14 05:04:42;;;;;;;60.75;27.65;;;;;;;-0.33;84.76;97519.20;2248955;78;21288;-74
2021/01/14 05:07:43;;;;;;;57.78;28.00;;;;;;;-0.37;84.80;97520.20;2255965;78;21321;-72
2021/01/14 05:10:45;;;;;;;51.20;26.05;;;;;;;-0.41;84.79;97513.03;2249859;78;21721;-71
2021/01/14 05:13:46;;;;;;;53.52;27.50;;;;;;;-0.42;84.86;97519.53;2251447;78;21289;-74
2021/01/14 05:16:47;;;;;;;54.83;25.95;;;;;;;-0.41;85.01;97519.93;2253994;78;21115;-68
2021/01/14 05:19:49;;;;;;;57.58;26.35;;;;;;;-0.40;84.95;97521.16;2249152;78;21285;-72
2021/01/14 05:22:50;;;;;;;58.08;29.42;;;;;;;-0.39;85.08;97525.42;2255353;78;21297;-73
2021/01/14 05:25:54;;;;;;;53.75;25.92;;;;;;;-0.39;85.10;97524.56;2256705;78;21265;-69
2021/01/14 05:28:56;;;;;;;57.38;25.25;;;;;;;-0.37;84.97;97524.91;2246801;78;21277;-71
2021/01/14 05:31:57;;;;;;;57.75;28.27;;;;;;;-0.37;85.08;97521.50;2244683;79;21324;-68
2021/01/14 05:34:58;;;;;;;56.68;26.27;;;;;;;-0.36;85.05;97533.45;2250759;78;21158;-66
2021/01/14 05:38:03;;;;;;;74.97;31.00;;;;;;;-0.37;85.15;97536.95;2248101;78;21724;-66
2021/01/14 05:41:11;;;;;;;72.47;31.27;;;;;;;-0.37;85.29;97544.23;2252102;79;21277;-68
2021/01/14 05:44:13;;;;;;;125.85;66.12;;;;;;;-0.36;85.17;97545.92;2250242;79;21260;-68
2021/01/14 05:47:14;;;;;;;100.27;48.60;;;;;;;-0.35;85.11;97548.03;2249544;78;21185;-65
2021/01/14 05:50:15;;;;;;;91.87;39.10;;;;;;;-0.39;85.08;97546.46;2244696;78;21280;-66
2021/01/14 05:53:16;;;;;;;87.92;36.53;;;;;;;-0.36;85.28;97553.64;2245999;78;21260;-65
2021/01/14 05:56:18;;;;;;;76.25;34.67;;;;;;;-0.37;85.28;97553.70;2249576;78;21709;-65
2021/01/14 05:59:19;;;;;;;66.15;30.72;;;;;;;-0.39;85.21;97556.77;2246072;78;21274;-64
2021/01/14 06:02:20;;;;;;;71.35;31.62;;;;;;;-0.37;85.32;97551.12;2250859;79;21273;-74
2021/01/14 06:05:21;;;;;;;65.32;32.05;;;;;;;-0.31;85.06;97562.95;2251015;78;21127;-71
2021/01/14 06:08:22;;;;;;;62.08;28.02;;;;;;;-0.42;85.07;97560.29;2247224;78;21277;-71
2021/01/14 06:11:24;;;;;;;69.00;30.95;;;;;;;-0.44;85.16;97564.67;2252480;78;21261;-67
2021/01/14 06:14:25;;;;;;;61.65;29.40;;;;;;;-0.53;85.30;97576.16;2248517;78;21727;-64
2021/01/14 06:17:26;;;;;;;73.95;31.73;;;;;;;-0.54;85.39;97583.48;2248703;78;21300;-64
2021/01/14 06:20:27;;;;;;;72.78;32.38;;;;;;;-0.54;85.49;97584.77;2246445;78;21284;-63
2021/01/14 06:23:28;;;;;;;69.50;31.37;;;;;;;-0.48;85.46;97589.33;2246850;79;21269;-66
2021/01/14 06:26:29;;;;;;;65.60;29.27;;;;;;;-0.46;85.32;97589.67;2251600;78;21289;-64
2021/01/14 06:29:31;;;;;;;61.05;27.93;;;;;;;-0.49;85.34;97600.05;2245539;78;21765;-65
2021/01/14 06:32:33;;;;;;;56.50;26.80;;;;;;;-0.53;85.43;97610.94;2248115;78;21562;-64
2021/01/14 06:35:34;;;;;;;58.00;25.77;;;;;;;-0.64;85.43;97607.06;2253834;78;21143;-64
2021/01/14 06:38:36;;;;;;;58.10;26.07;;;;;;;-0.72;85.61;97602.16;2251426;79;21281;-66
2021/01/14 06:41:37;;;;;;;59.10;28.45;;;;;;;-0.66;85.77;97619.14;2248643;78;21273;-64
2021/01/14 06:44:38;;;;;;;57.43;26.75;;;;;;;-0.64;85.84;97618.66;2250702;78;21285;-68
2021/01/14 06:47:39;;;;;;;55.88;25.48;;;;;;;-0.66;85.77;97624.29;2250467;78;21269;-71
2021/01/14 06:50:40;;;;;;;58.05;27.30;;;;;;;-0.67;85.83;97630.36;2250841;78;21696;-66
2021/01/14 06:53:42;;;;;;;57.00;26.65;;;;;;;-0.63;85.88;97632.77;2247137;78;21682;-64
2021/01/14 06:56:43;;;;;;;61.80;27.27;;;;;;;-0.62;85.90;97635.71;2244659;78;21717;-66
2021/01/14 06:59:44;;;;;;;56.53;26.52;;;;;;;-0.60;85.92;97644.24;2247992;78;21741;-64
2021/01/14 07:02:45;;;;;;;56.23;25.55;;;;;;;-0.54;85.99;97652.20;2252032;78;21289;-64
2021/01/14 07:05:46;;;;;;;56.88;26.82;;;;;;;-0.51;85.96;97653.38;2246267;78;21264;-64
2021/01/14 07:08:48;;;;;;;57.30;26.95;;;;;;;-0.44;85.74;97658.72;2246677;78;23069;-65
2021/01/14 07:11:49;;;;;;;58.68;26.02;;;;;;;-0.39;85.77;97667.14;2248008;78;21151;-65
2021/01/14 07:14:51;;;;;;;57.27;25.97;;;;;;;-0.27;85.83;97677.91;2253773;78;21349;-64
2021/01/14 07:17:52;;;;;;;55.78;25.55;;;;;;;-0.27;85.57;97674.87;2252619;78;21273;-64
2021/01/14 07:20:53;;;;;;;56.28;26.02;;;;;;;-0.29;85.40;97682.25;2247900;78;21265;-64
2021/01/14 07:23:54;;;;;;;64.62;28.45;;;;;;;-0.25;85.63;97691.11;2244981;78;21292;-66
2021/01/14 07:26:55;;;;;;;68.95;29.37;;;;;;;-0.19;85.40;97691.34;2244448;78;21138;-64
2021/01/14 07:29:57;;;;;;;65.55;28.57;;;;;;;-0.19;85.35;97701.22;2252665;78;21285;-64
2021/01/14 07:32:58;;;;;;;65.42;27.67;;;;;;;-0.17;85.32;97707.61;2253768;78;21285;-64
2021/01/14 07:35:59;;;;;;;62.65;27.75;;;;;;;-0.17;85.22;97710.19;2252386;79;21269;-64
2021/01/14 07:39:01;;;;;;;62.25;28.05;;;;;;;-0.15;85.22;97709.67;2247657;79;21278;-70
2021/01/14 07:42:03;;;;;;;62.20;28.00;;;;;;;-0.08;85.36;97715.45;2258187;78;21575;-72
2021/01/14 07:45:04;;;;;;;61.60;28.07;;;;;;;-0.02;85.23;97715.23;2253913;78;21721;-74
2021/01/14 07:48:08;;;;;;;63.38;29.60;;;;;;;0.10;85.00;97717.80;2250085;79;21104;-73
2021/01/14 07:51:09;;;;;;;65.22;29.30;;;;;;;0.25;84.83;97719.83;2256727;78;21278;-71
2021/01/14 07:54:10;;;;;;;63.38;30.27;;;;;;;0.49;84.52;97730.15;2247262;78;21269;-73
2021/01/14 07:57:12;;;;;;;62.25;29.07;;;;;;;0.59;84.08;97734.05;2244989;78;21272;-68
2021/01/14 08:00:14;;;;;;;62.67;28.07;;;;;;;0.66;83.85;97739.80;2252997;78;21579;-71
2021/01/14 08:03:15;;;;;;;57.73;27.55;;;;;;;0.64;83.73;97746.31;2250635;79;21298;-72
2021/01/14 08:06:16;;;;;;;63.35;29.98;;;;;;;0.69;83.68;97752.16;2249548;79;21269;-70
2021/01/14 08:09:17;;;;;;;63.65;30.92;;;;;;;0.73;83.35;97755.91;2252866;78;21281;-73
2021/01/14 08:12:18;;;;;;;62.17;30.88;;;;;;;0.75;83.60;97763.13;2246039;78;21257;-72
2021/01/14 08:15:20;;;;;;;60.23;28.62;;;;;;;0.78;83.35;97763.04;2255824;79;21262;-73
2021/01/14 08:18:23;;;;;;;66.22;31.50;;;;;;;0.84;83.28;97764.91;2252922;78;21724;-73
2021/01/14 08:21:28;;;;;;;66.07;32.40;;;;;;;0.94;83.22;97773.61;2255366;78;21493;-71
2021/01/14 08:24:29;;;;;;;63.68;31.35;;;;;;;0.87;82.88;97784.62;2252932;78;21726;-71
2021/01/14 08:27:30;;;;;;;63.00;30.43;;;;;;;0.75;83.11;97780.77;2250434;78;21270;-73
2021/01/14 08:30:31;;;;;;;62.25;30.62;;;;;;;0.68;82.99;97789.19;2244579;78;21301;-71
2021/01/14 08:33:32;;;;;;;60.15;29.27;;;;;;;0.60;83.22;97796.83;2254728;79;21281;-67
2021/01/14 08:36:33;;;;;;;59.18;29.52;;;;;;;0.49;83.30;97798.06;2246152;78;21264;-69
2021/01/14 08:39:34;;;;;;;56.42;27.55;;;;;;;0.45;83.42;97806.81;2248090;78;21261;-65
2021/01/14 08:42:36;;;;;;;56.20;26.48;;;;;;;0.38;83.57;97808.39;2252684;78;21695;-65
2021/01/14 08:45:37;;;;;;;56.95;27.90;;;;;;;0.43;83.58;97812.92;2249119;78;21329;-64
2021/01/14 08:48:38;;;;;;;61.25;29.95;;;;;;;0.44;83.49;97822.34;2252518;78;21293;-65
2021/01/14 08:51:39;;;;;;;51.63;24.85;;;;;;;0.50;83.52;97832.02;2255313;79;21278;-65
2021/01/14 08:54:43;;;;;;;53.17;25.52;;;;;;;0.59;83.12;97832.55;2247992;78;21265;-73
2021/01/14 08:57:45;;;;;;;55.12;27.95;;;;;;;0.55;83.11;97841.30;2245433;78;21277;-64
2021/01/14 09:00:46;;;;;;;61.25;29.98;;;;;;;0.56;82.96;97839.13;2249609;79;21256;-64
2021/01/14 09:03:48;;;;;;;50.98;25.02;;;;;;;0.62;82.79;97842.33;2234191;79;21730;-65
2021/01/14 09:06:49;;;;;;;50.45;24.40;;;;;;;0.70;82.87;97858.81;2253216;79;21298;-65
2021/01/14 09:09:50;;;;;;;50.78;25.08;;;;;;;0.59;82.87;97865.67;2256992;78;21254;-67
2021/01/14 09:12:52;;;;;;;49.50;23.02;;;;;;;0.38;83.26;97867.73;2256569;79;21725;-64
2021/01/14 09:15:53;;;;;;;51.33;24.05;;;;;;;0.20;83.59;97870.48;2238549;77;21277;-70
2021/01/14 09:18:54;;;;;;;44.30;20.77;;;;;;;0.21;83.67;97882.49;2246391;78;21178;-69
2021/01/14 09:21:56;;;;;;;40.08;18.20;;;;;;;0.28;83.45;97882.68;2244840;78;21735;-70
2021/01/14 09:24:58;;;;;;;39.92;15.83;;;;;;;0.35;82.68;97895.76;2250456;78;21705;-72
2021/01/14 09:28:00;;;;;;;41.40;18.00;;;;;;;0.48;82.39;97889.27;2251530;78;21578;-72
2021/01/14 09:31:01;;;;;;;42.50;18.30;;;;;;;0.49;81.78;97896.58;2229092;79;21348;-69
2021/01/14 09:34:02;;;;;;;32.50;13.13;;;;;;;0.41;81.36;97901.16;2229754;78;21273;-70
2021/01/14 09:37:03;;;;;;;33.30;13.28;;;;;;;0.55;80.47;97910.98;2251745;78;21332;-71
2021/01/14 09:40:05;;;;;;;29.50;12.95;;;;;;;1.01;79.56;97911.92;2244577;78;21289;-73
2021/01/14 09:43:06;;;;;;;27.62;11.50;;;;;;;1.47;79.20;97911.94;2244981;78;21730;-71
2021/01/14 09:46:07;;;;;;;29.67;12.55;;;;;;;1.83;78.44;97919.14;2245095;78;21693;-70
2021/01/14 09:49:09;;;;;;;33.88;14.73;;;;;;;2.20;77.98;97917.19;2249775;79;21273;-70
2021/01/14 09:52:10;;;;;;;32.03;13.22;;;;;;;2.57;75.43;97919.52;2245731;78;21296;-73
2021/01/14 09:55:12;;;;;;;35.88;15.48;;;;;;;2.87;76.57;97925.55;2256367;78;21147;-72
2021/01/14 09:58:18;;;;;;;34.60;15.70;;;;;;;3.15;76.14;97930.81;2253176;78;21281;-73
2021/01/14 10:01:17;;;;;;;33.78;14.83;;;;;;;3.24;75.41;97929.55;2249681;78;21292;-73
2021/01/14 10:04:19;;;;;;;33.13;15.28;;;;;;;3.26;74.71;97932.90;2252067;79;21103;-73
2021/01/14 10:07:20;;;;;;;32.10;15.25;;;;;;;2.94;74.85;97936.48;2253386;78;21383;-73
2021/01/14 10:10:21;;;;;;;28.73;11.88;;;;;;;2.98;75.25;97947.57;2250408;78;21709;-67
2021/01/14 10:13:22;;;;;;;31.10;12.55;;;;;;;2.66;74.06;97957.55;2246058;78;21558;-72
2021/01/14 10:16:24;;;;;;;29.25;12.23;;;;;;;2.28;74.34;97960.85;2253179;78;21689;-65
2021/01/14 10:19:25;;;;;;;28.85;12.70;;;;;;;2.22;75.49;97971.46;2247817;78;21292;-73
2021/01/14 10:22:26;;;;;;;29.00;12.47;;;;;;;2.24;76.13;97975.67;2223761;78;21276;-72
2021/01/14 10:25:27;;;;;;;29.18;12.00;;;;;;;2.47;76.55;97976.91;2245358;78;21289;-67
2021/01/14 10:28:28;;;;;;;27.82;12.20;;;;;;;2.67;75.58;97976.08;2226960;78;21155;-70
2021/01/14 10:31:29;;;;;;;30.45;11.88;;;;;;;2.85;75.17;97981.77;2247786;78;21583;-65
2021/01/14 10:34:30;;;;;;;28.32;12.13;;;;;;;3.02;75.14;97977.62;2247883;78;21615;-69
2021/01/14 10:37:31;;;;;;;32.70;12.15;;;;;;;3.44;74.76;97981.32;2248507;78;21268;-70
2021/01/14 10:40:33;;;;;;;28.20;11.53;;;;;;;3.55;74.17;97985.17;2247280;79;21280;-65
2021/01/14 10:43:34;;;;;;;26.93;10.00;;;;;;;3.32;72.55;97993.99;2244941;79;21321;-64
2021/01/14 10:46:36;;;;;;;25.27;10.65;;;;;;;3.04;73.05;97993.92;2246241;79;21261;-64
2021/01/14 10:49:38;;;;;;;28.23;10.80;;;;;;;2.74;73.81;97996.49;2226408;78;21852;-65
2021/01/14 10:52:43;;;;;;;;;;;;;;;2.61;74.35;98005.66;2254806;78;21118;-70
2021/01/14 10:55:46;;;;;;;28.47;10.53;;;;;;;2.50;74.15;98013.89;2230211;78;20497;-70
2021/01/14 10:58:48;;;;;;;26.12;8.35;;;;;;;2.45;74.24;98022.28;2251892;78;21285;-72
2021/01/14 11:01:49;;;;;;;26.40;9.58;;;;;;;2.25;73.42;98023.92;2252854;78;21285;-65
2021/01/14 11:04:50;;;;;;;23.90;8.35;;;;;;;2.13;73.95;98021.84;2252783;77;21276;-65
2021/01/14 11:07:51;;;;;;;24.87;9.35;;;;;;;2.43;73.58;98022.34;2250213;78;21280;-71
2021/01/14 11:10:52;;;;;;;25.48;9.15;;;;;;;2.64;72.17;98028.00;2249824;78;21140;-70
2021/01/14 11:13:54;;;;;;;25.72;9.25;;;;;;;2.72;72.66;98026.77;2248657;78;21266;-66
2021/01/14 11:16:55;;;;;;;24.82;9.70;;;;;;;2.60;72.33;98035.04;2251011;78;21273;-70
2021/01/14 11:19:56;;;;;;;26.95;9.40;;;;;;;2.67;72.90;98025.28;2251536;78;21293;-72
2021/01/14 11:22:58;;;;;;;25.80;10.20;;;;;;;2.99;71.98;98029.55;2251336;78;21798;-69
2021/01/14 11:26:02;;;;;;;26.27;10.10;;;;;;;3.21;70.21;98029.48;2252525;78;21265;-69
2021/01/14 11:29:03;;;;;;;26.95;10.03;;;;;;;3.51;70.58;98029.03;2250290;78;21259;-71
2021/01/14 11:32:04;;;;;;;26.27;10.45;;;;;;;3.93;68.90;98035.75;2251377;78;21575;-66
2021/01/14 11:35:05;;;;;;;26.52;10.45;;;;;;;4.61;68.23;98036.41;2248769;78;21270;-71
2021/01/14 11:38:07;;;;;;;25.75;9.68;;;;;;;4.55;65.91;98034.95;2245829;79;21732;-72
2021/01/14 11:41:08;;;;;;;24.57;9.25;;;;;;;4.15;67.82;98049.41;2245176;78;21333;-70
2021/01/14 11:44:09;;;;;;;25.52;9.50;;;;;;;3.77;66.44;98044.23;2248622;78;21297;-67
2021/01/14 11:47:10;;;;;;;26.93;10.08;;;;;;;3.41;68.77;98056.65;2252990;78;21332;-64
2021/01/14 11:50:11;;;;;;;27.98;10.63;;;;;;;3.18;68.87;98062.01;2257617;78;21296;-69
2021/01/14 11:53:13;;;;;;;28.90;10.58;;;;;;;2.93;68.22;98070.80;2251963;78;21278;-71
2021/01/14 11:56:14;;;;;;;27.60;11.15;;;;;;;2.84;69.58;98066.85;2249949;78;21768;-65
2021/01/14 11:59:15;;;;;;;25.10;9.85;;;;;;;2.78;69.81;98076.18;2244595;78;21260;-68
2021/01/14 12:02:17;;;;;;;27.13;9.78;;;;;;;2.73;69.38;98072.49;2250073;78;21112;-71
2021/01/14 12:05:19;;;;;;;28.45;10.03;;;;;;;2.67;69.47;98077.06;2226391;78;21281;-67
2021/01/14 12:08:20;;;;;;;28.07;10.32;;;;;;;2.55;70.01;98077.95;2239331;78;21276;-68
2021/01/14 12:11:22;;;;;;;30.60;11.38;;;;;;;2.46;70.20;98086.53;2252748;78;21603;-68
2021/01/14 12:14:23;;;;;;;32.80;12.65;;;;;;;2.50;70.62;98085.08;2254729;78;21694;-64
2021/01/14 12:17:25;;;;;;;30.65;11.93;;;;;;;2.44;70.02;98093.06;2247346;78;21281;-66
2021/01/14 12:20:26;;;;;;;31.23;12.10;;;;;;;2.47;71.22;98097.28;2242747;78;21262;-66
2021/01/14 12:23:27;;;;;;;33.88;13.70;;;;;;;2.63;71.23;98094.92;2252525;77;21274;-65
2021/01/14 12:26:28;;;;;;;33.00;13.38;;;;;;;2.60;70.65;98096.75;2249313;78;21698;-67
2021/01/14 12:29:29;;;;;;;35.00;13.70;;;;;;;2.58;71.10;98110.19;2248978;78;21277;-66
2021/01/14 12:32:32;;;;;;;37.47;14.50;;;;;;;2.45;68.64;98117.23;2245462;78;21312;-65
2021/01/14 12:35:34;;;;;;;36.68;14.18;;;;;;;2.32;70.58;98118.98;2252039;78;21170;-72
2021/01/14 12:38:35;;;;;;;34.75;14.50;;;;;;;2.18;71.16;98125.14;2249084;78;21126;-72
2021/01/14 12:41:36;;;;;;;36.25;15.40;;;;;;;1.93;71.05;98127.83;2250517;78;21776;-71
2021/01/14 12:44:38;;;;;;;34.63;14.18;;;;;;;1.71;71.57;98137.20;2248889;78;21575;-72
2021/01/14 12:47:39;;;;;;;38.17;15.40;;;;;;;1.48;72.38;98135.44;2252640;78;21294;-71
2021/01/14 12:50:40;;;;;;;39.45;16.00;;;;;;;1.42;73.30;98145.14;2248794;78;21313;-72
2021/01/14 12:53:42;;;;;;;39.17;16.17;;;;;;;1.38;72.55;98150.88;2248859;79;21269;-72
2021/01/14 12:56:43;;;;;;;40.23;16.93;;;;;;;1.25;73.09;98148.30;2254969;78;21262;-70
2021/01/14 12:59:44;;;;;;;43.55;18.42;;;;;;;1.10;73.20;98148.37;2251576;79;21606;-70
2021/01/14 13:02:46;;;;;;;46.73;19.82;;;;;;;0.92;73.11;98163.59;2250781;78;21286;-71
2021/01/14 13:05:47;;;;;;;49.98;19.82;;;;;;;0.85;73.91;98166.80;2249163;78;21151;-65
2021/01/14 13:08:50;;;;;;;51.77;21.30;;;;;;;0.75;73.53;98178.75;2251803;78;21264;-70
2021/01/14 13:11:51;;;;;;;53.83;22.37;;;;;;;0.62;74.53;98175.28;2247407;78;21736;-68
2021/01/14 13:14:52;;;;;;;55.83;23.50;;;;;;;0.46;74.62;98185.66;2251446;77;21107;-71
2021/01/14 13:17:54;;;;;;;54.63;23.38;;;;;;;0.36;75.12;98190.70;2252633;77;21150;-71
2021/01/14 13:20:55;;;;;;;54.53;23.92;;;;;;;0.26;75.18;98197.44;2256986;78;21705;-69
2021/01/14 13:23:56;;;;;;;60.40;25.65;;;;;;;0.22;75.72;98188.55;2256808;79;21277;-72
2021/01/14 13:26:57;;;;;;;64.05;26.35;;;;;;;0.14;75.78;98198.64;2250820;78;21272;-72
2021/01/14 13:29:58;;;;;;;60.70;25.77;;;;;;;0.11;76.10;98187.10;2246419;78;21281;-72
2021/01/14 13:32:59;;;;;;;66.07;25.50;;;;;;;0.08;76.47;98200.55;2253406;77;21347;-66
2021/01/14 13:36:01;;;;;;;61.28;26.27;;;;;;;-0.01;76.58;98210.22;2254697;79;21151;-67
2021/01/14 13:39:02;;;;;;;60.67;25.43;;;;;;;-0.10;76.89;98198.02;2250463;79;21277;-64
2021/01/14 13:42:05;;;;;;;66.30;28.00;;;;;;;-0.16;77.31;98205.94;2246150;78;21622;-68
2021/01/14 13:45:06;;;;;;;66.50;28.75;;;;;;;-0.15;77.64;98220.07;2245934;78;21272;-65
2021/01/14 13:48:08;;;;;;;61.55;26.17;;;;;;;-0.21;77.93;98212.06;2253570;78;21273;-69
2021/01/14 13:51:09;;;;;;;68.67;28.57;;;;;;;-0.22;78.07;98234.02;2221819;78;21286;-65
2021/01/14 13:54:11;;;;;;;67.42;27.55;;;;;;;-0.23;77.66;98218.14;2257173;77;21253;-65
2021/01/14 13:57:13;;;;;;;68.47;28.15;;;;;;;-0.26;77.89;98207.91;2250413;79;21261;-71
2021/01/14 14:00:14;;;;;;;59.35;24.77;;;;;;;-0.33;77.72;98221.85;2250636;78;21206;-65